LogoKauttuan Ilmailukerho
EFEU - Eura Aerodrome
METAR EFEU 222020Z AUTO 32003KT CAVOK 13/12 Q1014=
Automatic weather information from Eura aerodrome at 20:31:56Z
WIND 10 min Min Ave Max Temperature 12.7 °C Clouds Amount Height
Direction 340 340 340 ° Dewpoint 12.4 °C /// /// ft
Speed 0.0 1.0 3.0 kt Humidity 98.0 % /// ///ft
VISIBILITY 10min 16000 m QNH 1014.3hPa SKC /// ft
Present Weather
Note ///
Vastuu näiden säätietojen käytöstä on ilma-aluksen päälliköllä! | Responsibility for the use of meteorological data is with the PIC!